Time;durP1;ratioP1;P1;durP2;ratioP2;P2;SDS_P1;SDS_P2;PMS_P1;PMS_P2;Temp;Humidity;BMP_temperature;BMP_pressure;BME280_temperature;BME280_humidity;BME280_pressure;Samples;Min_cycle;Max_cycle;Signal;HPM_P1;HPM_P2
2022/01/26 00:06:01;;;;;;;35.80;26.90;;;;;;;2.82;87.56;101324.77;84538;1331;22868;-84
2022/01/26 00:08:07;;;;;;;27.80;21.30;;;;;;;2.80;87.54;101323.54;84610;1330;22834;-83
2022/01/26 00:10:14;;;;;;;27.70;17.80;;;;;;;2.80;87.47;101323.02;84589;1331;22762;-75
2022/01/26 00:12:20;;;;;;;24.30;16.60;;;;;;;2.80;87.47;101325.11;84630;1330;22614;-78
2022/01/26 00:14:26;;;;;;;51.90;29.10;;;;;;;2.79;87.52;101321.98;84495;1335;23973;-83
2022/01/26 00:16:38;;;;;;;45.00;24.80;;;;;;;2.78;87.44;101323.36;84557;1332;25497;-84
2022/01/26 00:18:44;;;;;;;32.50;19.60;;;;;;;2.76;87.50;101321.28;84562;1333;23993;-85
2022/01/26 00:20:57;;;;;;;32.30;20.40;;;;;;;2.76;87.39;101319.73;84628;1330;23011;-76
2022/01/26 00:23:19;;;;;;;35.50;20.70;;;;;;;2.74;87.41;101318.15;84556;1331;22633;-76
2022/01/26 00:25:37;;;;;;;36.70;22.10;;;;;;;2.75;87.48;101317.64;84603;1330;25507;-76
2022/01/26 00:27:51;;;;;;;35.00;22.20;;;;;;;2.70;87.42;101322.07;84599;1330;25451;-75
2022/01/26 00:31:12;;;;;;;40.50;21.80;;;;;;;2.66;87.46;101325.48;84618;1330;22891;-76
2022/01/26 00:39:47;;;;;;;28.00;19.10;;;;;;;2.66;87.62;101324.27;84587;1330;22691;-75
2022/01/26 00:41:57;;;;;;;31.60;18.80;;;;;;;2.66;87.54;101324.29;84467;1332;22758;-77
2022/01/26 00:44:08;;;;;;;28.60;17.30;;;;;;;2.67;87.59;101325.34;84619;1330;24254;-76
2022/01/26 00:46:14;;;;;;;23.80;15.30;;;;;;;2.69;87.73;101323.77;84513;1335;25972;-84
2022/01/26 00:48:24;;;;;;;22.20;15.90;;;;;;;2.69;87.55;101326.38;84604;1331;22696;-84
2022/01/26 00:50:30;;;;;;;25.10;18.00;;;;;;;2.69;87.61;101324.30;84624;1330;22622;-77
2022/01/26 00:52:41;;;;;;;27.40;17.40;;;;;;;2.69;87.58;101328.61;84618;1330;23071;-76
2022/01/26 00:54:47;;;;;;;30.70;18.20;;;;;;;2.68;87.57;101326.36;84654;1330;22618;-85
2022/01/26 00:56:56;;;;;;;25.60;17.30;;;;;;;2.67;87.41;101331.02;84569;1330;22610;-85
2022/01/26 00:59:03;;;;;;;23.20;15.60;;;;;;;2.66;87.29;101325.99;84617;1328;22955;-85
2022/01/26 01:01:09;;;;;;;39.40;19.30;;;;;;;2.65;87.32;101323.75;84616;1330;23917;-85
2022/01/26 01:03:15;;;;;;;27.80;19.20;;;;;;;2.64;87.34;101321.67;84629;1327;22636;-84
2022/01/26 01:05:25;;;;;;;23.90;16.20;;;;;;;2.66;87.54;101326.33;84601;1330;24120;-77
2022/01/26 01:07:35;;;;;;;24.90;15.40;;;;;;;2.66;87.41;101329.60;84601;1333;22620;-76
2022/01/26 01:09:41;;;;;;;25.60;15.40;;;;;;;2.66;87.50;101322.89;84612;1330;25309;-76
2022/01/26 01:11:50;;;;;;;24.80;17.40;;;;;;;2.64;87.41;101323.05;84511;1330;24306;-76
2022/01/26 01:13:59;;;;;;;27.60;18.00;;;;;;;2.62;87.26;101320.11;84516;1328;22909;-75
2022/01/26 01:16:16;;;;;;;29.60;18.60;;;;;;;2.61;87.40;101316.98;84556;1330;23158;-84
2022/01/26 01:18:28;;;;;;;26.70;17.00;;;;;;;2.59;87.16;101313.70;84527;1332;22654;-84
2022/01/26 01:20:58;;;;;;;32.90;17.70;;;;;;;2.58;87.39;101313.70;84581;1331;22640;-75
2022/01/26 01:23:33;;;;;;;51.00;26.60;;;;;;;2.59;87.37;101314.04;84557;1331;22617;-76
2022/01/26 01:28:23;;;;;;;34.50;20.40;;;;;;;2.60;87.47;101314.21;84428;1333;24194;-76
2022/01/26 01:30:34;;;;;;;39.40;22.00;;;;;;;2.62;87.58;101313.73;84619;1330;25359;-76
2022/01/26 01:32:52;;;;;;;43.80;22.10;;;;;;;2.63;87.77;101309.95;84496;1333;22899;-77
2022/01/26 01:34:59;;;;;;;47.50;22.60;;;;;;;2.63;87.63;101306.00;84590;1331;22622;-76
2022/01/26 01:37:08;;;;;;;40.00;20.80;;;;;;;2.62;87.41;101301.16;84617;1330;24228;-77
2022/01/26 01:39:15;;;;;;;43.10;20.50;;;;;;;2.62;87.41;101295.83;84570;1332;22705;-77
2022/01/26 01:41:23;;;;;;;39.70;20.30;;;;;;;2.63;87.47;101296.86;84599;1331;24238;-86
2022/01/26 01:43:29;;;;;;;40.80;22.90;;;;;;;2.64;87.37;101291.87;84628;1330;26595;-85
2022/01/26 01:45:38;;;;;;;28.80;18.10;;;;;;;2.63;87.35;101292.38;84625;1330;22624;-85
2022/01/26 01:47:47;;;;;;;31.60;16.70;;;;;;;2.66;87.61;101291.88;84572;1333;25543;-85
2022/01/26 01:49:53;;;;;;;29.80;17.50;;;;;;;2.68;87.59;101289.66;84547;1332;22619;-77
2022/01/26 01:52:04;;;;;;;30.90;17.70;;;;;;;2.68;87.35;101290.02;84614;1330;22600;-77
2022/01/26 01:54:15;;;;;;;26.90;15.50;;;;;;;2.68;87.33;101294.84;84504;1332;25309;-77
2022/01/26 01:56:25;;;;;;;;;;;;;;;2.68;87.27;101295.53;84676;1330;22589;-86
2022/01/26 01:58:31;;;;;;;31.20;19.00;;;;;;;2.64;87.26;101290.66;84605;1331;23202;-84
2022/01/26 02:00:37;;;;;;;33.30;16.50;;;;;;;2.63;87.21;101291.86;84659;1330;25597;-85
2022/01/26 02:02:43;;;;;;;32.20;17.60;;;;;;;2.63;87.25;101291.86;84615;1332;22807;-86
2022/01/26 02:04:49;;;;;;;27.80;18.10;;;;;;;2.64;87.23;101291.70;84644;1331;22877;-85
2022/01/26 02:06:55;;;;;;;28.60;17.90;;;;;;;2.65;87.31;101290.48;84636;1330;22726;-86
2022/01/26 02:09:01;;;;;;;29.50;18.10;;;;;;;2.62;87.17;101291.16;84649;1330;22622;-85
2022/01/26 02:11:09;;;;;;;26.60;17.40;;;;;;;2.57;87.05;101289.58;84622;1332;22584;-85
2022/01/26 02:13:21;;;;;;;35.30;18.90;;;;;;;2.55;87.18;101291.27;84599;1330;22624;-86
2022/01/26 02:15:34;;;;;;;34.10;20.20;;;;;;;2.53;87.20;101288.85;84572;1334;22635;-77
2022/01/26 02:18:09;;;;;;;40.60;18.00;;;;;;;2.54;87.21;101288.51;84602;1333;22595;-76
2022/01/26 02:20:41;;;;;;;26.20;15.50;;;;;;;2.55;87.12;101283.52;84600;1332;25944;-76
2022/01/26 02:49:54;;;;;;;26.20;15.80;;;;;;;2.54;86.94;101273.70;84536;1333;22603;-76
2022/01/26 02:52:18;;;;;;;25.00;15.00;;;;;;;2.55;87.17;101277.66;84555;1331;22639;-77
2022/01/26 02:57:03;;;;;;;27.40;15.80;;;;;;;2.53;87.21;101278.69;84621;1330;25275;-84
2022/01/26 02:59:36;;;;;;;30.00;14.50;;;;;;;2.51;87.09;101280.39;84611;1330;22986;-84
2022/01/26 03:01:51;;;;;;;25.80;16.00;;;;;;;2.49;87.09;101277.95;84618;1332;25451;-85
2022/01/26 03:04:04;;;;;;;22.90;14.60;;;;;;;2.50;87.09;101276.06;84585;1330;23413;-85
2022/01/26 03:06:15;;;;;;;22.90;14.80;;;;;;;2.53;87.14;101273.00;84603;1330;22663;-83
2022/01/26 03:08:30;;;;;;;24.00;15.10;;;;;;;2.56;87.16;101276.29;84479;1335;22718;-84
2022/01/26 03:10:45;;;;;;;25.30;15.90;;;;;;;2.56;87.08;101272.50;84575;1335;26664;-75
2022/01/26 03:12:56;;;;;;;26.80;16.80;;;;;;;2.57;87.13;101273.73;84481;1335;22606;-77
2022/01/26 03:15:15;;;;;;;22.80;14.10;;;;;;;2.58;87.22;101273.39;84547;1333;24088;-77
2022/01/26 03:17:36;;;;;;;19.80;14.10;;;;;;;2.58;87.12;101274.59;84580;1331;25383;-76
2022/01/26 03:19:45;;;;;;;25.10;14.30;;;;;;;2.56;86.96;101278.01;84585;1331;22600;-84
2022/01/26 03:22:15;;;;;;;23.00;13.50;;;;;;;2.56;87.08;101283.70;84577;1333;22590;-84
2022/01/26 03:29:14;;;;;;;27.40;15.40;;;;;;;2.51;86.97;101279.19;84603;1333;25282;-83
2022/01/26 03:33:56;;;;;;;28.60;15.50;;;;;;;2.49;86.77;101272.79;84515;1331;22608;-76
2022/01/26 03:36:11;;;;;;;26.50;15.90;;;;;;;2.46;86.81;101272.58;84602;1331;22602;-77
2022/01/26 03:38:22;;;;;;;28.10;15.60;;;;;;;2.44;86.94;101273.08;84502;1335;22705;-76
2022/01/26 03:40:34;;;;;;;21.50;13.90;;;;;;;2.43;86.95;101270.50;84500;1328;23283;-84
2022/01/26 03:42:43;;;;;;;26.20;14.10;;;;;;;2.43;87.13;101265.85;84550;1333;22588;-83
2022/01/26 03:44:52;;;;;;;25.70;14.50;;;;;;;2.45;87.13;101268.26;84563;1333;22629;-76
2022/01/26 03:46:58;;;;;;;20.40;14.50;;;;;;;2.46;87.02;101264.65;84560;1335;22929;-75
2022/01/26 03:49:05;;;;;;;23.30;15.90;;;;;;;2.46;86.99;101263.63;84538;1331;24280;-77
2022/01/26 03:51:11;;;;;;;19.30;12.50;;;;;;;2.47;87.13;101265.72;84646;1333;24244;-83
2022/01/26 03:53:18;;;;;;;22.40;14.20;;;;;;;2.49;87.15;101268.30;84558;1335;23544;-84
2022/01/26 03:55:27;;;;;;;28.50;13.80;;;;;;;2.49;87.26;101265.21;84653;1330;22613;-86
2022/01/26 03:57:32;;;;;;;24.90;14.30;;;;;;;2.49;86.92;101266.59;84594;1331;22689;-83
2022/01/26 03:59:41;;;;;;;25.40;14.10;;;;;;;2.47;86.92;101270.70;84583;1335;22717;-76
2022/01/26 04:01:47;;;;;;;25.30;14.70;;;;;;;2.47;87.04;101276.04;84580;1331;25295;-76
2022/01/26 04:03:54;;;;;;;28.60;14.20;;;;;;;2.48;87.02;101277.60;84529;1335;22644;-75
2022/01/26 04:06:03;;;;;;;23.90;14.20;;;;;;;2.47;86.88;101280.34;84566;1332;23802;-84
2022/01/26 04:08:14;;;;;;;21.50;13.20;;;;;;;2.45;86.83;101279.79;82434;1333;3052355;-83
2022/01/26 04:10:31;;;;;;;22.70;13.30;;;;;;;2.44;86.85;101278.94;84561;1333;22600;-84
2022/01/26 04:12:41;;;;;;;26.60;14.50;;;;;;;2.40;86.66;101277.86;84610;1333;23920;-84
2022/01/26 04:14:53;;;;;;;;;;;;;;;2.37;86.89;101275.77;84606;1331;22580;-84
2022/01/26 04:17:03;;;;;;;21.90;12.70;;;;;;;2.32;86.80;101274.00;84559;1335;22649;-84
2022/01/26 04:19:10;;;;;;;22.70;14.50;;;;;;;2.31;86.98;101272.77;84563;1335;22654;-84
2022/01/26 04:21:30;;;;;;;20.60;14.10;;;;;;;2.32;87.14;101275.05;84638;1331;22632;-83
2022/01/26 04:24:15;;;;;;;18.70;12.80;;;;;;;2.33;87.15;101274.17;84535;1335;22718;-83
2022/01/26 04:26:30;;;;;;;23.20;12.40;;;;;;;2.32;87.06;101271.27;84446;1333;24484;-75
2022/01/26 04:28:43;;;;;;;21.40;12.50;;;;;;;2.33;87.08;101273.15;84561;1335;25376;-76
2022/01/26 04:30:52;;;;;;;18.40;12.30;;;;;;;2.32;86.88;101270.21;84547;1334;22602;-76
2022/01/26 04:33:03;;;;;;;19.10;12.70;;;;;;;2.32;86.96;101267.28;84524;1335;25660;-75
2022/01/26 04:35:13;;;;;;;22.10;13.00;;;;;;;2.33;87.00;101266.44;84598;1333;22976;-75
2022/01/26 04:37:32;;;;;;;19.60;13.10;;;;;;;2.33;87.08;101266.45;84494;1335;23957;-75
2022/01/26 04:39:43;;;;;;;22.70;12.90;;;;;;;2.32;86.97;101270.04;84618;1333;24249;-84
2022/01/26 04:41:55;;;;;;;22.60;12.10;;;;;;;2.30;86.99;101270.88;83914;1333;1003202;-84
2022/01/26 04:44:10;;;;;;;15.50;11.20;;;;;;;2.29;86.99;101265.88;84661;1333;24000;-83
2022/01/26 04:46:24;;;;;;;22.20;10.60;;;;;;;2.27;86.86;101268.27;84553;1335;22760;-76
2022/01/26 04:48:35;;;;;;;18.40;11.20;;;;;;;2.24;86.69;101263.92;84439;1336;25355;-75
2022/01/26 04:50:45;;;;;;;17.20;9.90;;;;;;;2.22;86.77;101263.38;84547;1335;22639;-75
2022/01/26 04:52:54;;;;;;;15.80;9.50;;;;;;;2.22;86.95;101258.73;84592;1331;23924;-76
2022/01/26 04:55:01;;;;;;;17.10;9.70;;;;;;;2.21;86.75;101257.35;84592;1335;22644;-77
2022/01/26 04:57:07;;;;;;;14.90;9.60;;;;;;;2.20;86.86;101258.90;83902;1330;1003095;-76
2022/01/26 04:59:13;;;;;;;13.50;8.90;;;;;;;2.19;87.01;101256.98;84518;1334;24059;-76
2022/01/26 05:01:19;;;;;;;20.10;9.90;;;;;;;2.18;86.93;101255.59;84554;1334;24254;-75
2022/01/26 05:03:27;;;;;;;12.80;8.20;;;;;;;2.16;87.09;101251.09;84511;1331;25874;-83
2022/01/26 05:05:34;;;;;;;13.80;8.70;;;;;;;2.17;86.99;101253.36;84619;1330;22620;-84
2022/01/26 05:07:47;;;;;;;13.80;8.40;;;;;;;2.18;87.05;101246.66;84526;1335;22597;-85
2022/01/26 05:09:57;;;;;;;15.70;7.90;;;;;;;2.19;86.98;101243.05;84625;1333;25442;-84
2022/01/26 05:12:08;;;;;;;16.80;8.50;;;;;;;2.17;86.86;101242.85;84540;1331;22619;-84
2022/01/26 05:14:18;;;;;;;12.30;8.30;;;;;;;2.15;86.82;101237.32;84664;1330;22629;-85
2022/01/26 05:16:25;;;;;;;12.20;9.10;;;;;;;2.10;86.72;101236.92;84592;1330;22605;-75
2022/01/26 05:18:31;;;;;;;11.40;8.10;;;;;;;2.07;86.64;101236.39;84574;1335;24018;-76
2022/01/26 05:20:40;;;;;;;12.40;7.80;;;;;;;2.05;86.79;101236.35;84515;1335;22612;-76
2022/01/26 05:22:47;;;;;;;14.80;7.90;;;;;;;2.03;86.93;101238.41;84576;1330;23886;-76
2022/01/26 05:24:56;;;;;;;14.10;7.90;;;;;;;2.01;86.67;101235.98;84542;1335;22976;-82
2022/01/26 05:27:02;;;;;;;12.00;7.10;;;;;;;1.96;86.76;101234.88;84637;1333;22839;-84
2022/01/26 05:29:08;;;;;;;18.30;8.80;;;;;;;1.93;86.79;101237.44;84568;1334;22622;-84
2022/01/26 05:31:13;;;;;;;15.00;9.00;;;;;;;1.92;86.99;101233.80;84603;1334;22615;-83
2022/01/26 05:33:23;;;;;;;13.50;7.50;;;;;;;1.94;86.94;101234.86;84590;1335;24129;-83
2022/01/26 05:35:28;;;;;;;;;;;;;;;1.94;86.90;101234.17;84594;1335;24102;-76
2022/01/26 05:37:37;;;;;;;13.90;9.10;;;;;;;1.89;86.76;101232.05;84496;1335;22609;-76
2022/01/26 05:39:44;;;;;;;16.60;9.60;;;;;;;1.89;86.88;101235.15;84581;1333;22712;-76
2022/01/26 05:41:50;;;;;;;13.60;8.90;;;;;;;1.88;87.03;101235.31;84599;1331;22598;-76
2022/01/26 05:43:57;;;;;;;19.70;10.10;;;;;;;1.87;86.98;101235.98;84579;1334;22851;-76
2022/01/26 05:46:07;;;;;;;21.90;11.60;;;;;;;1.86;86.95;101235.80;84594;1335;23923;-83
2022/01/26 05:48:13;;;;;;;20.40;11.00;;;;;;;1.86;87.27;101240.45;84539;1335;22792;-84
2022/01/26 05:50:23;;;;;;;22.30;11.90;;;;;;;1.84;87.19;101242.32;84585;1332;26993;-76
2022/01/26 05:52:28;;;;;;;;;;;;;;;1.83;87.22;101241.28;84557;1335;22644;-76
2022/01/26 05:54:37;;;;;;;20.60;11.70;;;;;;;1.82;87.34;101243.16;84597;1335;22784;-76
2022/01/26 05:56:43;;;;;;;23.50;12.80;;;;;;;1.84;87.43;101242.67;84598;1333;22634;-75
2022/01/26 05:58:49;;;;;;;23.20;12.40;;;;;;;1.88;87.49;101245.46;84592;1330;22651;-76
2022/01/26 06:00:57;;;;;;;24.90;12.50;;;;;;;1.91;87.54;101242.23;84503;1331;22605;-76
2022/01/26 06:03:06;;;;;;;27.60;13.50;;;;;;;1.94;87.44;101237.27;84520;1334;22688;-76
2022/01/26 06:05:12;;;;;;;23.80;12.30;;;;;;;1.95;87.38;101236.42;84584;1334;22604;-76
2022/01/26 06:07:18;;;;;;;26.40;14.20;;;;;;;1.97;87.42;101233.00;84574;1330;23079;-76
2022/01/26 06:09:24;;;;;;;23.40;13.90;;;;;;;1.98;87.48;101233.20;84595;1330;25733;-76
2022/01/26 06:11:30;;;;;;;24.80;13.40;;;;;;;1.96;87.24;101230.58;84539;1333;22618;-76
2022/01/26 06:13:36;;;;;;;21.30;12.00;;;;;;;1.95;87.06;101230.40;84547;1335;22687;-75
2022/01/26 06:15:44;;;;;;;20.40;11.50;;;;;;;1.91;86.84;101228.45;84505;1334;22665;-75
2022/01/26 06:17:50;;;;;;;23.90;12.90;;;;;;;1.88;86.75;101225.16;84601;1330;22625;-76
2022/01/26 06:19:56;;;;;;;21.70;12.20;;;;;;;1.85;86.78;101224.77;84608;1333;22604;-81
2022/01/26 06:22:02;;;;;;;23.10;13.40;;;;;;;1.83;86.86;101225.11;84594;1330;22633;-84
2022/01/26 06:24:08;;;;;;;26.00;13.90;;;;;;;1.85;87.21;101222.71;84604;1330;22673;-83
2022/01/26 06:26:14;;;;;;;24.40;14.50;;;;;;;1.88;87.25;101225.33;84612;1330;24222;-84
2022/01/26 06:28:21;;;;;;;21.00;13.80;;;;;;;1.87;87.06;101221.35;84539;1335;24007;-76
2022/01/26 06:30:30;;;;;;;24.10;14.00;;;;;;;1.86;87.07;101221.69;84648;1331;25532;-82
2022/01/26 06:32:38;;;;;;;17.50;12.30;;;;;;;1.86;87.03;101224.09;84637;1333;22603;-73
2022/01/26 06:34:44;;;;;;;16.50;11.30;;;;;;;1.86;87.06;101219.63;84543;1331;22877;-72
2022/01/26 06:36:50;;;;;;;22.40;12.40;;;;;;;1.87;87.07;101218.94;84528;1327;22671;-74
2022/01/26 06:38:56;;;;;;;20.00;13.10;;;;;;;1.89;87.30;101223.63;84516;1334;22848;-73
2022/01/26 06:41:06;;;;;;;15.80;10.90;;;;;;;1.93;87.20;101219.72;84570;1333;22587;-73
2022/01/26 06:43:15;;;;;;;19.90;12.60;;;;;;;1.94;87.21;101216.46;84600;1330;25381;-73
2022/01/26 06:45:26;;;;;;;43.30;23.00;;;;;;;1.97;87.17;101215.29;84610;1333;25449;-83
2022/01/26 06:47:49;;;;;;;56.70;25.00;;;;;;;2.01;87.23;101217.72;84637;1333;22598;-85
2022/01/26 06:49:57;;;;;;;39.70;19.10;;;;;;;2.02;87.04;101218.60;84574;1327;22614;-84
2022/01/26 06:52:04;;;;;;;34.40;15.00;;;;;;;1.99;86.84;101221.50;83929;1333;1003580;-84
2022/01/26 06:54:09;;;;;;;41.80;19.70;;;;;;;1.98;87.02;101224.77;84532;1333;24167;-84
2022/01/26 06:56:15;;;;;;;34.00;17.60;;;;;;;2.02;87.09;101225.31;84619;1330;22614;-85
2022/01/26 06:58:21;;;;;;;32.50;16.70;;;;;;;2.03;87.02;101220.34;84524;1335;23990;-84
2022/01/26 07:00:26;;;;;;;28.40;14.90;;;;;;;2.03;86.92;101221.36;84592;1334;22601;-85
2022/01/26 07:02:36;;;;;;;33.40;18.00;;;;;;;2.01;86.92;101215.84;84571;1329;24373;-85
2022/01/26 07:04:41;;;;;;;;;;;;;;;2.01;86.99;101218.75;84580;1332;22615;-72
2022/01/26 07:06:48;;;;;;;69.30;32.20;;;;;;;2.04;87.37;101216.73;84483;1332;22597;-72
2022/01/26 07:08:55;;;;;;;53.30;26.20;;;;;;;2.11;87.43;101219.90;84601;1333;22622;-72
2022/01/26 07:11:03;;;;;;;38.50;21.80;;;;;;;2.14;87.30;101217.70;84605;1330;22594;-72
2022/01/26 07:13:12;;;;;;;36.00;19.60;;;;;;;2.17;87.28;101218.23;84546;1334;25366;-72
2022/01/26 07:21:05;;;;;;;22.40;13.20;;;;;;;2.26;87.09;101212.48;84571;1332;22677;-72
2022/01/26 07:23:01;;;;;;;20.60;12.10;;;;;;;2.26;86.96;101209.73;84554;1333;22633;-73
2022/01/26 07:25:11;;;;;;;21.00;12.40;;;;;;;2.29;87.06;101205.61;84591;1333;22671;-84
2022/01/26 07:27:18;;;;;;;17.60;11.40;;;;;;;2.31;87.07;101205.28;84622;1330;22694;-81
2022/01/26 07:29:29;;;;;;;22.20;15.20;;;;;;;2.33;87.01;101207.04;84574;1331;22644;-81
2022/01/26 07:31:42;;;;;;;23.40;15.10;;;;;;;2.35;86.94;101206.36;84634;1333;22700;-81
2022/01/26 07:33:54;;;;;;;19.50;13.30;;;;;;;2.36;86.91;101209.80;82417;1329;1003683;-81
2022/01/26 07:36:01;;;;;;;28.20;16.80;;;;;;;2.35;86.77;101207.55;84573;1332;24311;-83
2022/01/26 07:38:07;;;;;;;24.50;12.90;;;;;;;2.31;86.59;101211.14;84626;1333;24164;-84
2022/01/26 07:40:16;;;;;;;18.90;11.30;;;;;;;2.34;86.67;101210.48;84615;1324;23143;-78
2022/01/26 07:42:22;;;;;;;24.20;13.40;;;;;;;2.34;86.63;101212.89;84600;1330;22752;-79
2022/01/26 07:44:31;;;;;;;92.10;48.90;;;;;;;2.33;86.61;101218.05;84632;1330;24319;-75
2022/01/26 07:46:44;;;;;;;30.30;16.50;;;;;;;2.33;86.58;101220.13;84601;1330;22692;-76
2022/01/26 07:48:54;;;;;;;23.90;14.40;;;;;;;2.36;86.76;101224.10;84575;1330;23911;-74
2022/01/26 07:51:03;;;;;;;26.10;17.70;;;;;;;2.37;86.67;101218.78;84583;1334;22618;-81
2022/01/26 07:53:14;;;;;;;25.40;15.70;;;;;;;2.37;86.72;101213.27;84549;1332;25271;-79
2022/01/26 07:55:24;;;;;;;26.20;14.30;;;;;;;2.39;86.93;101213.80;84551;1333;23032;-79
2022/01/26 08:05:49;;;;;;;21.80;12.00;;;;;;;2.49;86.77;101203.38;84063;1337;25462;-81
2022/01/26 08:11:44;;;;;;;15.70;9.30;;;;;;;2.75;87.21;101207.90;84540;1331;22612;-84
2022/01/26 08:13:57;;;;;;;16.50;10.50;;;;;;;2.84;86.88;101208.64;84613;1330;22676;-84
2022/01/26 08:16:07;;;;;;;20.60;9.40;;;;;;;2.87;86.62;101208.67;84593;1333;24282;-74
2022/01/26 08:18:29;;;;;;;14.90;9.10;;;;;;;2.90;86.41;101210.74;84607;1328;22666;-73
2022/01/26 08:20:45;;;;;;;14.80;9.50;;;;;;;2.96;86.83;101205.11;84547;1333;22828;-73
2022/01/26 08:22:56;;;;;;;12.50;8.30;;;;;;;3.04;86.47;101210.14;84589;1332;22731;-74
2022/01/26 08:25:09;;;;;;;10.30;7.70;;;;;;;3.07;86.25;101207.95;84606;1330;22717;-73
2022/01/26 08:27:19;;;;;;;14.10;9.20;;;;;;;3.10;86.13;101209.16;84577;1332;22812;-79
2022/01/26 08:29:40;;;;;;;13.80;9.10;;;;;;;3.17;86.39;101210.92;84602;1330;22768;-74
2022/01/26 08:31:53;;;;;;;16.30;8.70;;;;;;;3.25;86.20;101213.73;84632;1322;24284;-73
2022/01/26 08:34:04;;;;;;;15.20;9.80;;;;;;;3.32;85.94;101214.11;84741;1323;25445;-73
2022/01/26 08:36:14;;;;;;;18.00;10.80;;;;;;;3.35;85.83;101213.44;84739;1328;22902;-79
2022/01/26 08:38:24;;;;;;;18.40;10.10;;;;;;;3.40;85.82;101215.02;84788;1327;22609;-73
2022/01/26 08:40:33;;;;;;;19.90;11.30;;;;;;;3.45;85.81;101216.05;84754;1327;25478;-75
2022/01/26 08:42:42;;;;;;;15.70;10.20;;;;;;;3.47;85.47;101218.16;84740;1326;22823;-74
2022/01/26 08:44:51;;;;;;;17.20;11.00;;;;;;;3.48;85.36;101214.87;84706;1329;22607;-74
2022/01/26 08:46:58;;;;;;;16.90;9.80;;;;;;;3.51;85.18;101214.38;84667;1330;25436;-81
2022/01/26 08:49:04;;;;;;;16.90;9.60;;;;;;;3.54;85.04;101209.20;84745;1330;23980;-82
2022/01/26 08:51:10;;;;;;;18.20;10.80;;;;;;;3.60;85.01;101211.14;84699;1329;23463;-83
2022/01/26 08:53:20;;;;;;;16.90;9.90;;;;;;;3.69;85.44;101208.41;84693;1328;22924;-81
2022/01/26 08:55:29;;;;;;;13.10;9.30;;;;;;;3.77;85.12;101209.30;84672;1331;24264;-81
2022/01/26 08:57:38;;;;;;;20.10;11.00;;;;;;;3.83;85.07;101200.86;84761;1327;22741;-74
2022/01/26 08:59:45;;;;;;;16.50;9.80;;;;;;;3.91;85.26;101202.09;84706;1323;24184;-75
2022/01/26 09:01:51;;;;;;;17.50;10.80;;;;;;;4.00;84.85;101199.35;84751;1329;24265;-76
2022/01/26 09:03:57;;;;;;;16.70;10.00;;;;;;;4.00;84.49;101200.73;84724;1329;25433;-75
2022/01/26 09:06:03;;;;;;;16.30;10.30;;;;;;;3.97;83.99;101203.64;84649;1331;22611;-74
2022/01/26 09:08:12;;;;;;;24.70;12.70;;;;;;;4.00;84.28;101199.52;84661;1333;22600;-75
2022/01/26 09:10:18;;;;;;;17.00;9.80;;;;;;;4.02;84.01;101202.11;84713;1329;22610;-75
2022/01/26 09:12:29;;;;;;;15.60;10.20;;;;;;;4.03;83.76;101199.70;84699;1332;22552;-74
2022/01/26 09:14:35;;;;;;;18.90;9.80;;;;;;;4.04;83.59;101199.35;84624;1330;25304;-74
2022/01/26 09:16:40;;;;;;;16.90;9.60;;;;;;;4.04;83.60;101200.40;84692;1327;24004;-74
2022/01/26 09:18:51;;;;;;;13.10;9.00;;;;;;;4.08;83.82;101199.89;84699;1328;24228;-74
2022/01/26 09:20:59;;;;;;;17.40;10.00;;;;;;;4.11;83.54;101195.05;84712;1330;24277;-73
2022/01/26 09:23:05;;;;;;;20.70;10.00;;;;;;;4.12;83.38;101198.16;84687;1326;22596;-81
2022/01/26 09:25:15;;;;;;;13.50;9.70;;;;;;;4.10;82.81;101193.33;84729;1327;22663;-79
2022/01/26 09:27:23;;;;;;;13.40;9.00;;;;;;;4.06;82.74;101199.88;84710;1331;24277;-76
2022/01/26 09:29:29;;;;;;;18.60;11.40;;;;;;;4.04;82.56;101202.47;84690;1329;22677;-75
2022/01/26 09:31:38;;;;;;;19.00;11.30;;;;;;;4.02;82.86;101197.80;84703;1330;22710;-75
2022/01/26 09:33:49;;;;;;;15.50;10.50;;;;;;;4.01;82.52;101199.70;84725;1328;23846;-74
2022/01/26 09:35:58;;;;;;;17.90;10.80;;;;;;;3.98;82.41;101202.80;84686;1328;22597;-81
2022/01/26 09:38:04;;;;;;;14.10;9.60;;;;;;;3.96;82.43;101201.93;84737;1330;22600;-80
2022/01/26 09:40:15;;;;;;;14.20;9.30;;;;;;;3.96;82.02;101196.06;84732;1328;22612;-80
2022/01/26 09:42:24;;;;;;;16.50;9.90;;;;;;;3.93;82.06;101197.60;84715;1331;22798;-80
2022/01/26 09:44:31;;;;;;;46.40;22.50;;;;;;;3.94;82.30;101197.09;84625;1331;23927;-79
2022/01/26 09:46:38;;;;;;;24.20;13.00;;;;;;;3.96;82.49;101195.20;84665;1332;22631;-80
2022/01/26 09:48:45;;;;;;;19.30;12.40;;;;;;;4.01;82.56;101196.77;84681;1328;22624;-80
2022/01/26 09:50:54;;;;;;;19.70;12.80;;;;;;;4.07;82.71;101198.15;84728;1330;22612;-81
2022/01/26 09:53:04;;;;;;;20.60;12.00;;;;;;;4.13;82.39;101196.77;84725;1329;25503;-81
2022/01/26 09:55:14;;;;;;;19.00;11.20;;;;;;;4.17;82.37;101194.71;84710;1327;22712;-81
2022/01/26 09:57:19;;;;;;;15.90;11.60;;;;;;;4.21;82.46;101196.98;84749;1327;22732;-75
2022/01/26 09:59:26;;;;;;;14.80;9.40;;;;;;;4.25;82.08;101189.04;84684;1327;24257;-74
2022/01/26 10:01:43;;;;;;;13.70;9.00;;;;;;;4.28;81.51;101189.70;84676;1327;22594;-74
2022/01/26 10:03:55;;;;;;;18.60;9.50;;;;;;;4.30;81.68;101189.05;84731;1329;26573;-73
2022/01/26 10:06:08;;;;;;;17.30;9.10;;;;;;;4.32;81.26;101181.60;84709;1328;22781;-73
2022/01/26 10:08:27;;;;;;;15.70;8.80;;;;;;;4.32;81.12;101175.90;84727;1329;22613;-73
2022/01/26 10:15:56;;;;;;;13.30;9.10;;;;;;;4.43;80.79;101165.02;84588;1333;23357;-81
2022/01/26 10:18:12;;;;;;;14.20;10.30;;;;;;;4.43;81.08;101164.49;84436;1329;22624;-74
2022/01/26 10:20:27;;;;;;;18.70;10.30;;;;;;;4.47;81.07;101155.17;84482;1331;22594;-73
2022/01/26 10:22:36;;;;;;;12.60;7.60;;;;;;;4.59;81.10;101153.45;84747;1328;25467;-74
2022/01/26 10:24:50;;;;;;;12.50;7.90;;;;;;;4.69;81.41;101148.42;84762;1328;24045;-73
2022/01/26 10:27:08;;;;;;;12.00;6.80;;;;;;;4.76;80.65;101147.02;84701;1329;22614;-82
2022/01/26 10:29:22;;;;;;;12.30;7.50;;;;;;;4.77;80.61;101153.92;84803;1328;22619;-74
2022/01/26 10:31:32;;;;;;;9.50;6.80;;;;;;;4.78;80.09;101150.48;84663;1328;22699;-82
2022/01/26 10:33:58;;;;;;;8.90;5.50;;;;;;;4.79;80.14;101150.30;84701;1330;24327;-81
2022/01/26 10:36:10;;;;;;;14.00;6.70;;;;;;;4.81;79.72;101152.02;84715;1329;25298;-74
2022/01/26 10:38:18;;;;;;;9.30;5.20;;;;;;;4.77;79.22;101147.20;84686;1325;22595;-79
2022/01/26 10:40:59;;;;;;;12.00;5.30;;;;;;;4.73;79.21;101147.21;84737;1328;24151;-78
2022/01/26 10:43:10;;;;;;;12.50;6.30;;;;;;;4.67;79.06;101139.79;84711;1326;22775;-82
2022/01/26 10:45:19;;;;;;;12.10;6.90;;;;;;;4.64;78.79;101137.70;84744;1327;24256;-83
2022/01/26 10:47:34;;;;;;;10.00;5.80;;;;;;;4.61;78.43;101140.30;84690;1325;22618;-74
2022/01/26 10:50:08;;;;;;;10.80;6.30;;;;;;;4.60;78.59;101132.88;84682;1331;22614;-74
2022/01/26 10:52:30;;;;;;;9.80;5.80;;;;;;;4.57;78.22;101127.88;84705;1329;22844;-74
2022/01/26 10:54:42;;;;;;;9.10;5.70;;;;;;;4.53;78.30;101123.38;84716;1328;22590;-83
2022/01/26 10:56:49;;;;;;;7.70;4.10;;;;;;;4.51;78.11;101124.94;84736;1325;23124;-81
2022/01/26 10:59:02;;;;;;;19.30;5.80;;;;;;;4.51;78.21;101127.18;84713;1323;22803;-74
2022/01/26 11:01:12;;;;;;;8.70;4.30;;;;;;;4.53;78.14;101121.30;84694;1329;24404;-81
2022/01/26 11:03:18;;;;;;;9.00;4.80;;;;;;;4.50;77.85;101117.69;84727;1329;22681;-77
2022/01/26 11:05:30;;;;;;;8.20;5.40;;;;;;;4.49;78.01;101113.71;84737;1329;22614;-81
2022/01/26 11:07:45;;;;;;;12.80;6.20;;;;;;;4.47;77.86;101116.13;84660;1326;22638;-74
2022/01/26 11:10:05;;;;;;;16.30;9.00;;;;;;;4.44;77.80;101113.89;84759;1323;22671;-81
2022/01/26 11:12:14;;;;;;;14.90;9.70;;;;;;;4.40;78.13;101108.71;84695;1329;22615;-81
2022/01/26 11:14:25;;;;;;;13.70;8.70;;;;;;;4.37;77.95;101103.89;84645;1328;24267;-80
2022/01/26 11:16:38;;;;;;;18.50;11.20;;;;;;;4.36;78.10;101105.61;84699;1325;25577;-80
2022/01/26 11:18:51;;;;;;;16.70;10.30;;;;;;;4.32;78.03;101101.11;84784;1327;23946;-82